Latest Weather Observations for Cape Byron

IDN60801

Issued at 12:35 pm EST Wednesday 3 September 2014 (issued every 30 minutes, with the page automatically refreshed every 10 minutes)

About weather observations | Map of weather stations | Latest weather observations for NSW | Other Formats
Station Details ID: 058216 Name: CAPE BYRON AWS Lat: -28.64 Lon: 153.64 Height: 95.0 m
Data from the previous 72 hours. | See also: Recent months at Cape Byron
Date/Time
EST
Temp
°C
App
Temp
°C
Dew
Point
Rel
Hum
%
Delta-T
°C
Wind Press
QNH
hPa
Press
MSL
hPa
Rain
since 9 am
mm
Dir
 
Spd
km/h
Gust
km/h
Spd
kts
Gust
kts
03/12:30pm 19.1 10.8 2.0 32 7.9 WSW 35 54 19 29 1008.3 1008.0 0.0
03/12:00pm 18.8 11.2 3.0 35 7.4 WSW 32 50 17 27 1008.6 1008.3 0.0
03/11:42am 18.3 10.4 2.2 34 7.4 WSW 33 52 18 28 1009.1 1008.8 0.0
03/11:30am 18.0 10.0 1.9 34 7.3 SW 33 48 18 26 1009.2 1008.9 0.0
03/11:00am 17.3 8.7 2.5 37 6.8 WSW 37 63 20 34 1009.6 1009.3 0.0
03/10:43am 17.0 9.1 2.2 37 6.7 WSW 33 56 18 30 1009.7 1009.4 0.0
03/10:30am 16.9 9.7 3.2 40 6.3 W 30 43 16 23 1009.8 1009.5 0.0
03/10:00am 16.2 8.0 2.9 41 6.1 W 35 50 19 27 1009.8 1009.5 0.0
03/09:32am 15.6 7.9 2.1 40 6.0 WSW 32 50 17 27 1009.8 1009.5 0.0
03/09:30am 15.6 7.9 2.4 41 5.9 WSW 32 44 17 24 1009.9 1009.6 0.0
03/09:08am 15.2 8.2 2.1 41 5.8 W 28 46 15 25 1010.1 1009.8 0.0
03/09:00am 14.9 7.1 1.8 41 5.8 W 32 46 17 25 1010.0 1009.7 0.0
03/08:33am 14.4 7.4 1.7 42 5.6 W 28 48 15 26 1010.0 1009.7 0.0
03/08:30am 14.3 7.6 1.6 42 5.5 W 26 48 14 26 1010.1 1009.8 0.0
03/08:00am 13.6 6.2 1.6 44 5.2 W 30 48 16 26 1009.9 1009.6 0.0
03/07:30am 12.8 4.8 1.8 47 4.8 W 33 54 18 29 1009.6 1009.3 0.0
03/07:00am 12.5 4.3 0.6 44 5.0 W 33 54 18 29 1009.2 1008.9 0.0
03/06:30am 12.2 4.9 0.3 44 4.9 W 28 46 15 25 1009.3 1009.0 0.0
03/06:00am 12.3 4.6 0.1 43 5.1 W 30 52 16 28 1008.7 1008.4 0.0
03/05:45am 12.2 4.9 0.0 43 5.0 W 28 46 15 25 1009.2 - 0.0
03/05:30am 12.2 5.3 0.3 44 4.9 W 26 39 14 21 1009.1 - 0.0
03/05:00am 12.1 6.1 1.1 47 4.7 WNW 22 37 12 20 1008.9 1008.6 0.0
03/04:30am 12.1 6.5 1.1 47 4.7 WNW 20 33 11 18 1009.0 - 0.0
03/04:00am 12.4 6.8 1.4 47 4.7 WNW 20 32 11 17 1008.9 1008.6 0.0
03/03:30am 12.2 7.0 2.4 51 4.3 WNW 19 30 10 16 1009.3 - 0.0
03/03:00am 12.4 7.5 2.3 50 4.4 WNW 17 28 9 15 1009.7 1009.4 0.0
03/02:30am 13.0 6.9 0.7 43 5.2 W 22 32 12 17 1010.0 - 0.0
03/02:00am 13.4 6.2 0.8 42 5.4 W 28 39 15 21 1010.3 1010.0 0.0
03/01:30am 13.8 6.2 0.5 40 5.6 W 30 39 16 21 1010.5 - 0.0
03/01:00am 14.2 6.6 0.5 39 5.8 W 30 48 16 26 1010.6 1010.3 0.0
03/12:56am 14.3 6.6 0.2 38 6.0 W 30 48 16 26 1010.6 - 0.0
03/12:30am 14.4 7.9 0.3 38 6.0 W 24 39 13 21 1011.0 - 0.0
03/12:00am 14.6 9.1 0.8 39 5.9 W 19 28 10 15 1011.3 1011.0 0.0
 
Date/Time
EST
Temp
°C
App
Temp
°C
Dew
Point
Rel
Hum
%
Delta-T
°C
Wind Press
QNH
hPa
Press
MSL
hPa
Rain
since 9 am
mm
Dir
 
Spd
km/h
Gust
km/h
Spd
kts
Gust
kts
02/11:30pm 14.8 9.1 0.6 38 6.1 W 20 39 11 21 1011.4 - 0.0
02/11:00pm 15.5 9.0 0.5 36 6.5 W 24 33 13 18 1011.3 1011.0 0.0
02/10:30pm 15.7 8.5 0.7 36 6.5 W 28 50 15 27 1011.1 - 0.0
02/10:22pm 15.9 8.8 1.2 37 6.5 W 28 50 15 27 1011.0 - 0.0
02/10:00pm 15.8 9.2 1.9 39 6.2 W 26 39 14 21 1011.0 1010.7 0.0
02/09:30pm 16.4 9.4 1.7 37 6.5 W 28 46 15 25 1011.1 - 0.0
02/09:00pm 16.9 8.9 1.4 35 6.9 W 33 54 18 29 1010.8 1010.5 0.0
02/08:30pm 17.4 9.6 1.8 35 7.0 W 32 48 17 26 1010.5 - 0.0
02/08:05pm 18.1 9.7 1.6 33 7.4 W 35 54 19 29 1010.3 - 0.0
02/08:00pm 18.0 10.3 2.3 35 7.2 W 32 44 17 24 1010.3 1010.0 0.0
02/07:48pm 18.3 10.7 2.6 35 7.2 W 32 50 17 27 1010.1 - 0.0
02/07:30pm 18.7 11.8 2.5 34 7.5 W 28 41 15 22 1009.9 - 0.0
02/07:00pm 18.9 12.9 3.5 36 7.3 WNW 24 35 13 19 1009.6 1009.3 0.0
02/06:30pm 19.2 13.5 4.9 39 7.0 WNW 24 39 13 21 1008.9 - 0.0
02/06:00pm 20.3 13.6 3.9 34 7.9 W 28 44 15 24 1008.3 1008.0 0.0
02/05:30pm 20.2 15.8 6.5 41 6.9 NW 19 30 10 16 1007.8 - 0.0
02/05:00pm 21.7 18.8 8.2 42 7.1 NW 13 28 7 15 1007.3 1007.0 0.0
02/04:30pm 21.3 20.6 14.2 64 4.2 NNW 11 22 6 12 1006.6 - 0.0
02/04:00pm 21.0 17.8 14.2 65 4.0 N 24 37 13 20 1006.2 1005.9 0.0
02/03:30pm 19.6 15.5 13.8 69 3.3 N 28 44 15 24 1006.0 - 0.0
02/03:20pm 20.0 15.9 13.7 67 3.6 N 28 46 15 25 1005.9 - 0.0
02/03:00pm 20.4 15.5 13.6 65 3.9 N 32 44 17 24 1005.8 1005.5 0.0
02/02:30pm 20.7 15.6 13.6 64 4.1 N 33 50 18 27 1005.6 - 0.0
02/02:00pm 20.8 16.2 14.5 67 3.7 N 32 46 17 25 1006.2 1005.9 0.0
02/01:30pm 20.5 15.6 13.7 65 3.9 N 32 43 17 23 1006.6 - 0.0
02/01:00pm 20.2 15.5 13.2 64 4.0 N 30 43 16 23 1007.5 1007.2 0.0
02/12:30pm 19.9 14.7 12.7 63 4.1 N 32 41 17 22 1007.8 - 0.0
02/12:00pm 20.5 15.7 11.7 57 4.9 NNE 28 39 15 21 1008.4 1008.1 0.0
02/11:30am 21.1 16.9 11.2 53 5.5 N 24 33 13 18 1009.3 - 0.0
02/11:00am 19.8 15.7 10.2 54 5.2 N 22 32 12 17 1010.0 1009.7 0.0
02/10:30am 19.0 14.7 10.8 59 4.5 N 24 33 13 18 1010.6 - 0.0
02/10:00am 18.5 14.2 10.8 61 4.2 N 24 33 13 18 1011.2 1010.9 0.0
02/09:30am 17.9 13.1 10.3 61 4.1 N 26 35 14 19 1011.6 - 0.0
02/09:00am 17.8 14.2 10.7 63 3.8 N 20 30 11 16 1012.0 1011.8 0.0
02/08:30am 18.0 15.0 10.6 62 4.0 N 17 32 9 17 1012.3 - 0.0
02/08:00am 17.8 14.5 10.9 64 3.7 N 19 32 10 17 1012.4 1012.2 0.0
02/07:30am 17.6 14.2 11.4 67 3.4 N 20 32 11 17 1012.5 - 0.0
02/07:00am 17.1 15.1 11.4 69 3.1 NW 13 26 7 14 1012.6 1012.4 0.0
02/06:30am 17.1 15.2 11.8 71 2.9 NNW 13 24 7 13 1012.6 - 0.0
02/06:00am 17.3 14.0 11.6 69 3.1 N 20 32 11 17 1012.5 1012.3 0.0
02/05:30am 17.5 14.1 12.4 72 2.8 N 22 30 12 16 1012.5 - 0.0
02/05:00am 17.3 14.5 13.2 77 2.3 N 20 30 11 16 1012.6 1012.4 0.0
02/04:30am 17.3 13.4 13.2 77 2.3 N 26 37 14 20 1012.5 - 0.0
02/04:00am 17.4 14.6 14.3 82 1.8 N 22 32 12 17 1012.8 1012.6 0.0
02/03:30am 17.0 14.8 14.3 84 1.6 N 19 32 10 17 1012.8 - 0.0
02/03:00am 17.2 15.8 14.5 84 1.6 N 15 26 8 14 1013.0 1012.8 0.0
02/02:30am 17.6 15.9 14.7 83 1.7 N 17 28 9 15 1013.4 - 0.0
02/02:00am 17.9 15.7 14.8 82 1.8 N 20 30 11 16 1013.6 1013.4 0.0
02/01:30am 17.9 15.7 15.0 83 1.7 N 20 33 11 18 1014.1 - 0.0
02/01:00am 18.0 16.1 15.3 84 1.6 N 19 28 10 15 1014.6 1014.4 0.0
02/12:30am 18.0 16.9 15.3 84 1.6 NNW 15 22 8 12 1015.0 - 0.0
02/12:00am 18.0 17.2 15.1 83 1.7 NNW 13 24 7 13 1015.2 1015.0 0.0
 
Date/Time
EST
Temp
°C
App
Temp
°C
Dew
Point
Rel
Hum
%
Delta-T
°C
Wind Press
QNH
hPa
Press
MSL
hPa
Rain
since 9 am
mm
Dir
 
Spd
km/h
Gust
km/h
Spd
kts
Gust
kts
01/11:30pm 18.2 17.1 15.3 83 1.7 N 15 26 8 14 1015.3 - 0.0
01/11:00pm 18.3 17.2 15.4 83 1.7 NNW 15 26 8 14 1015.4 1015.2 0.0
01/10:30pm 18.3 16.8 15.2 82 1.8 NNW 17 24 9 13 1015.6 - 0.0
01/10:00pm 18.5 16.6 15.2 81 1.9 NNW 19 30 10 16 1015.5 1015.3 0.0
01/09:30pm 18.5 16.6 15.2 81 1.9 NNW 19 28 10 15 1015.8 - 0.0
01/09:00pm 18.8 16.5 15.7 82 1.8 N 22 33 12 18 1016.0 1015.8 0.0
01/08:30pm 18.8 17.5 15.9 83 1.7 N 17 24 9 13 1016.1 - 0.0
01/08:00pm 19.0 17.7 15.7 81 2.0 N 17 26 9 14 1016.1 1015.9 0.0
01/07:30pm 19.0 17.0 15.5 80 2.1 N 20 30 11 16 1015.8 - 0.0
01/07:00pm 19.2 17.0 15.9 81 2.0 N 22 30 12 16 1015.7 1015.5 0.0
01/06:30pm 19.1 16.2 15.2 78 2.3 N 24 32 13 17 1015.5 - 0.0
01/06:00pm 19.3 16.5 15.4 78 2.3 N 24 33 13 18 1015.2 1015.0 0.0
01/05:30pm 19.3 16.5 15.4 78 2.3 N 24 32 13 17 1015.2 - 0.0
01/05:00pm 19.6 17.2 15.3 76 2.5 NNE 22 35 12 19 1015.3 1015.1 0.0
01/04:30pm 19.9 17.3 14.9 73 2.9 NNE 22 32 12 17 1014.9 - 0.0
01/04:00pm 20.1 17.9 14.9 72 3.1 NNE 20 30 11 16 1014.7 1014.5 0.0
01/03:30pm 20.4 18.2 15.0 71 3.2 NNE 20 35 11 19 1014.9 - 0.0
01/03:00pm 21.0 17.7 14.9 68 3.6 NE 26 35 14 19 1014.9 1014.7 0.0
01/02:30pm 21.2 18.2 14.8 67 3.8 NE 24 30 13 16 1015.4 - 0.0
01/02:00pm 21.0 18.7 14.6 67 3.8 NNE 20 28 11 15 1015.5 1015.3 0.0
01/01:30pm 20.8 18.7 15.1 70 3.4 NE 20 28 11 15 1016.1 - 0.0
01/01:00pm 21.2 18.1 14.4 65 4.0 NE 24 30 13 16 1016.5 1016.2 0.0
01/12:30pm 21.5 17.5 14.2 63 4.3 NE 28 32 15 17 1016.8 - 0.0
01/12:00pm 21.4 17.9 14.6 65 4.0 NE 26 30 14 16 1017.6 1017.3 0.0
01/11:30am 21.7 19.1 14.8 65 4.1 NE 22 26 12 14 1018.1 - 0.0
01/11:00am 21.6 19.8 15.4 68 3.7 NE 19 20 10 11 1018.8 1018.5 0.0
01/10:30am 21.1 20.7 15.2 69 3.5 NNE 11 17 6 9 1019.3 - 0.0
01/10:00am 20.7 20.2 14.8 69 3.5 NE 11 13 6 7 1019.4 1019.1 0.0
01/09:30am 20.3 20.6 14.4 69 3.4 NNE 6 9 3 5 1019.6 - 0.0
01/09:00am 19.2 18.9 13.4 69 3.3 N 7 11 4 6 1019.8 1019.6 0.0
01/08:30am 19.3 19.3 13.7 70 3.2 N 6 7 3 4 1019.7 - 0.0
01/08:00am 17.8 17.6 13.5 76 2.4 NNW 7 7 4 4 1019.6 1019.4 0.0
01/07:30am 17.7 19.0 14.0 79 2.1 CALM 0 0 0 0 1019.4 - 0.0
01/07:00am 17.1 16.5 13.6 80 2.0 W 9 9 5 5 1019.3 1019.1 0.0
01/06:30am 16.6 15.2 13.5 82 1.8 W 13 15 7 8 1019.0 - 0.0
01/06:00am 16.0 14.1 12.9 82 1.7 W 15 19 8 10 1018.8 1018.6 0.0
01/05:30am 16.3 14.9 13.4 83 1.6 W 13 17 7 9 1018.4 - 0.0
01/05:00am 16.2 14.3 13.1 82 1.7 W 15 17 8 9 1018.2 1018.0 0.0
01/04:30am 16.4 14.7 13.5 83 1.6 WSW 15 20 8 11 1018.1 - 0.0
01/04:00am 16.4 14.3 13.5 83 1.6 WSW 17 20 9 11 1018.1 1017.9 0.0
01/03:30am 16.5 14.5 13.8 84 1.5 WSW 17 19 9 10 1018.1 - 0.0
01/03:00am 16.4 14.3 13.7 84 1.5 WSW 17 20 9 11 1018.1 1017.9 0.0
01/02:30am 16.6 15.0 13.9 84 1.5 WSW 15 19 8 10 1018.2 - 0.0
01/02:00am 16.5 14.9 13.8 84 1.5 WSW 15 19 8 10 1018.3 1018.1 0.0
01/01:30am 16.4 14.3 13.7 84 1.5 W 17 20 9 11 1018.5 - 0.0
01/01:00am 15.9 13.7 13.4 85 1.4 W 17 20 9 11 1018.7 1018.5 0.0
01/12:30am 16.3 14.2 13.6 84 1.5 W 17 20 9 11 1018.8 - 0.0
01/12:00am 16.2 14.5 13.7 85 1.4 W 15 20 8 11 1018.8 1018.6 0.0
 
Date/Time
EST
Temp
°C
App
Temp
°C
Dew
Point
Rel
Hum
%
Delta-T
°C
Wind Press
QNH
hPa
Press
MSL
hPa
Rain
since 9 am
mm
Dir
 
Spd
km/h
Gust
km/h
Spd
kts
Gust
kts
31/11:30pm 16.1 14.8 13.6 85 1.4 WSW 13 17 7 9 1018.9 - 0.0
31/11:00pm 16.2 15.0 13.9 86 1.3 SW 13 15 7 8 1019.0 1018.8 0.0
31/10:30pm 16.3 15.0 13.8 85 1.4 SW 13 13 7 7 1019.0 - 0.0
31/10:00pm 16.5 15.9 13.6 83 1.6 SSW 9 11 5 6 1018.9 1018.7 0.0
31/09:30pm 16.8 16.6 13.7 82 1.8 SSW 7 13 4 7 1019.0 - 0.0
31/09:00pm 17.7 16.6 14.2 80 2.0 S 13 17 7 9 1019.0 1018.8 0.0
31/08:30pm 17.7 16.1 14.0 79 2.1 SSE 15 20 8 11 1018.9 - 0.0
31/08:00pm 17.6 15.7 14.1 80 2.0 S 17 20 9 11 1018.8 1018.6 0.0
31/07:30pm 17.6 15.2 13.7 78 2.2 SSE 19 26 10 14 1018.8 - 0.0
31/07:00pm 17.7 14.8 14.0 79 2.1 SSE 22 30 12 16 1018.3 1018.1 0.0
31/06:30pm 17.7 14.4 14.0 79 2.1 SSE 24 32 13 17 1017.9 - 0.0
31/06:00pm 17.7 14.4 14.0 79 2.1 SSE 24 32 13 17 1017.6 1017.4 0.0
31/05:30pm 17.7 13.6 13.8 78 2.2 SSE 28 35 15 19 1017.2 - 0.0
31/05:00pm 18.0 14.4 14.1 78 2.2 S 26 32 14 17 1017.1 1016.9 0.0
31/04:30pm 18.0 13.9 13.7 76 2.5 S 28 35 15 19 1017.1 - 0.0
31/04:00pm 18.3 14.3 14.2 77 2.4 S 28 37 15 20 1016.9 1016.7 0.0
31/03:30pm 18.6 13.8 13.9 74 2.7 S 32 37 17 20 1016.9 - 0.0
31/03:00pm 18.9 14.5 14.0 73 2.8 S 30 37 16 20 1017.0 1016.8 0.0
31/02:30pm 18.8 13.7 13.2 70 3.2 S 32 37 17 20 1016.9 - 0.0
31/02:00pm 18.6 13.2 12.8 69 3.3 S 33 37 18 20 1017.0 1016.8 0.0
31/01:30pm 18.6 13.1 12.6 68 3.4 S 33 39 18 21 1017.1 - 0.0
31/01:00pm 18.5 13.0 12.5 68 3.4 S 33 41 18 22 1017.3 1017.1 0.0

Other Formats:

Comma delimited format used in spreadsheet applications
http://www.bom.gov.au/fwo/IDN60801/IDN60801.94599.axf

JavaScript Object Notation format (JSON) in row-major order
http://www.bom.gov.au/fwo/IDN60801/IDN60801.94599.json